createdAt,value
2019-02-19T00:06:38.032Z,995.99
2019-02-19T00:16:38.234Z,996.02
2019-02-19T00:26:37.954Z,996.11
2019-02-19T00:36:39.541Z,996.15
2019-02-19T00:46:39.013Z,996.18
2019-02-19T00:56:38.113Z,996.31
2019-02-19T01:06:37.967Z,996.30
2019-02-19T01:16:38.021Z,996.44
2019-02-19T01:26:39.185Z,996.56
2019-02-19T01:36:40.201Z,996.69
2019-02-19T01:46:38.013Z,996.70
2019-02-19T01:56:38.663Z,996.57
2019-02-19T02:06:37.932Z,996.56
2019-02-19T02:16:37.988Z,996.63
2019-02-19T02:26:37.958Z,996.68
2019-02-19T02:36:38.020Z,996.69
2019-02-19T02:46:37.988Z,996.74
2019-02-19T02:56:38.002Z,996.67
2019-02-19T03:06:38.056Z,996.77
2019-02-19T03:16:38.039Z,996.80
2019-02-19T03:26:37.988Z,996.90
2019-02-19T03:36:37.983Z,996.98
2019-02-19T03:46:38.021Z,996.93
2019-02-19T03:56:37.951Z,996.99
2019-02-19T04:06:37.957Z,997.15
2019-02-19T04:16:37.965Z,997.10
2019-02-19T04:26:38.001Z,997.18
2019-02-19T04:36:37.855Z,997.29
2019-02-19T04:46:38.011Z,997.34
2019-02-19T04:56:38.002Z,997.20
2019-02-19T05:06:38.182Z,997.20
2019-02-19T05:16:40.998Z,997.42
2019-02-19T05:26:37.972Z,997.44
2019-02-19T05:36:37.944Z,997.47
2019-02-19T05:46:38.056Z,997.57
2019-02-19T05:56:37.966Z,997.65
2019-02-19T06:06:37.913Z,997.74
2019-02-19T06:16:40.118Z,997.83
2019-02-19T06:26:38.006Z,997.86
2019-02-19T06:36:37.892Z,997.98
2019-02-19T06:46:37.939Z,998.09
2019-02-19T06:56:37.924Z,998.21
2019-02-19T07:06:39.131Z,998.33
2019-02-19T07:16:38.735Z,998.39
2019-02-19T07:26:38.865Z,998.64
2019-02-19T07:36:37.947Z,998.75
2019-02-19T07:46:37.911Z,998.85
2019-02-19T07:56:37.995Z,998.95
2019-02-19T08:06:37.999Z,999.11
2019-02-19T08:16:38.004Z,999.27
2019-02-19T08:26:38.006Z,999.43
2019-02-19T08:36:38.047Z,999.40
2019-02-19T08:46:38.079Z,999.42
2019-02-19T08:56:38.187Z,999.42
2019-02-19T09:06:38.063Z,999.41
2019-02-19T09:16:39.457Z,999.42
2019-02-19T09:26:38.065Z,999.50
2019-02-19T09:36:39.106Z,999.57
2019-02-19T09:46:38.500Z,999.68
2019-02-19T09:56:38.946Z,999.78
2019-02-19T10:06:38.087Z,999.73
2019-02-19T10:16:41.703Z,999.80
2019-02-19T10:26:38.047Z,999.65
2019-02-19T10:36:39.357Z,999.76
2019-02-19T10:46:38.093Z,999.81
2019-02-19T10:56:38.600Z,999.77
2019-02-19T11:06:39.076Z,999.79
2019-02-19T11:16:40.411Z,999.82
2019-02-19T11:26:38.103Z,999.68
2019-02-19T11:36:38.007Z,999.73
2019-02-19T11:46:38.091Z,999.79
2019-02-19T11:56:38.982Z,999.81
2019-02-19T12:06:38.055Z,999.82
2019-02-19T12:16:40.101Z,999.73
2019-02-19T12:26:39.235Z,999.77
2019-02-19T12:36:39.776Z,999.62
2019-02-19T12:46:38.071Z,999.73
2019-02-19T12:56:38.048Z,999.70
2019-02-19T13:06:37.930Z,999.63
2019-02-19T13:16:38.791Z,999.62
2019-02-19T13:26:38.124Z,999.80
2019-02-19T13:36:38.074Z,999.85
2019-02-19T13:46:38.072Z,999.73
2019-02-19T13:56:38.202Z,999.74
2019-02-19T14:06:37.970Z,999.73
2019-02-19T14:16:41.396Z,999.78
2019-02-19T14:26:38.472Z,999.90
2019-02-19T14:36:38.121Z,999.98
2019-02-19T14:46:38.063Z,999.89
2019-02-19T14:56:38.049Z,999.86
2019-02-19T15:06:38.042Z,999.87
2019-02-19T15:16:37.940Z,999.90
2019-02-19T15:26:38.005Z,999.96
2019-02-19T15:36:38.085Z,999.92
2019-02-19T15:46:38.361Z,999.96
2019-02-19T15:56:37.999Z,999.99
2019-02-19T16:06:38.073Z,999.99
2019-02-19T16:16:39.537Z,1000.07
2019-02-19T16:26:38.073Z,1000.05
2019-02-19T16:36:37.988Z,1000.17
2019-02-19T16:46:38.128Z,1000.16
2019-02-19T16:56:38.083Z,1000.21
2019-02-19T17:06:39.102Z,1000.17
2019-02-19T17:16:38.115Z,1000.26
2019-02-19T17:26:38.024Z,1000.48
2019-02-19T17:36:38.104Z,1000.50
2019-02-19T17:46:38.081Z,1000.54
2019-02-19T17:56:38.053Z,1000.60
2019-02-19T18:06:37.913Z,1000.57
2019-02-19T18:16:38.053Z,1000.67
2019-02-19T18:26:38.047Z,1000.73
2019-02-19T18:36:37.976Z,1000.80
2019-02-19T18:46:37.970Z,1000.90
2019-02-19T18:56:37.956Z,1000.88
2019-02-19T19:06:38.000Z,1000.85
2019-02-19T19:16:37.897Z,1000.84
2019-02-19T19:26:37.960Z,1000.93
2019-02-19T19:36:38.020Z,1000.86
2019-02-19T19:46:37.876Z,1000.97
2019-02-19T19:56:37.953Z,1001.06
2019-02-19T20:06:38.153Z,1001.06
2019-02-19T20:16:37.946Z,1001.02
2019-02-19T20:26:37.951Z,1001.03
2019-02-19T20:36:37.951Z,1001.12
2019-02-19T20:46:38.003Z,1001.25
2019-02-19T20:56:37.939Z,1001.23
2019-02-19T21:06:37.942Z,1001.22
2019-02-19T21:16:37.955Z,1001.16
2019-02-19T21:26:37.943Z,1001.14
2019-02-19T21:36:37.931Z,1001.10
2019-02-19T21:46:37.930Z,1001.17
2019-02-19T21:56:37.930Z,1001.07
2019-02-19T22:06:37.928Z,1001.10
2019-02-19T22:16:38.414Z,1001.09
2019-02-19T22:26:37.962Z,1001.16
2019-02-19T22:36:37.890Z,1001.10
2019-02-19T22:46:37.962Z,1001.27
2019-02-19T22:56:37.814Z,1001.28
2019-02-19T23:06:37.877Z,1001.34
2019-02-19T23:16:38.022Z,1001.36
2019-02-19T23:26:37.922Z,1001.42
2019-02-19T23:36:37.937Z,1001.39
2019-02-19T23:46:38.875Z,1001.38
2019-02-19T23:56:37.944Z,1001.39
